createdAt,value
2019-05-26T00:01:06.208Z,93.40
2019-05-26T00:03:34.652Z,93.30
2019-05-26T00:06:03.602Z,93.30
2019-05-26T00:08:32.022Z,93.30
2019-05-26T00:11:00.465Z,93.20
2019-05-26T00:13:28.910Z,93.40
2019-05-26T00:15:57.378Z,93.60
2019-05-26T00:18:25.827Z,93.70
2019-05-26T00:20:54.290Z,93.50
2019-05-26T00:23:22.762Z,93.60
2019-05-26T00:25:51.186Z,93.60
2019-05-26T00:28:19.642Z,93.60
2019-05-26T00:30:48.090Z,93.30
2019-05-26T00:33:16.537Z,93.30
2019-05-26T00:35:44.983Z,93.60
2019-05-26T00:38:13.428Z,93.80
2019-05-26T00:40:42.342Z,94.10
2019-05-26T00:43:11.291Z,94.20
2019-05-26T00:45:39.712Z,94.10
2019-05-26T00:48:08.254Z,94.00
2019-05-26T00:50:36.695Z,94.20
2019-05-26T00:53:05.286Z,94.30
2019-05-26T00:55:33.716Z,94.30
2019-05-26T00:58:02.451Z,94.40
2019-05-26T01:00:42.197Z,94.40
2019-05-26T01:03:12.039Z,94.50
2019-05-26T01:05:41.183Z,94.40
2019-05-26T01:08:10.470Z,94.60
2019-05-26T01:10:38.970Z,94.80
2019-05-26T01:13:07.576Z,94.90
2019-05-26T01:15:36.500Z,95.00
2019-05-26T01:18:06.417Z,95.10
2019-05-26T01:20:34.909Z,95.10
2019-05-26T01:23:03.971Z,95.10
2019-05-26T01:25:32.381Z,95.30
2019-05-26T01:28:00.850Z,95.20
2019-05-26T01:30:37.026Z,95.20
2019-05-26T01:33:06.728Z,95.10
2019-05-26T01:35:39.103Z,95.00
2019-05-26T01:38:22.546Z,94.80
2019-05-26T01:40:45.997Z,94.80
2019-05-26T01:43:14.452Z,94.90
2019-05-26T01:45:42.880Z,94.60
2019-05-26T01:48:11.333Z,94.60
2019-05-26T01:50:39.754Z,94.60
2019-05-26T01:53:08.653Z,94.60
2019-05-26T01:55:37.075Z,94.60
2019-05-26T01:58:05.979Z,94.60
2019-05-26T02:00:34.507Z,94.80
2019-05-26T02:03:03.290Z,94.90
2019-05-26T02:05:31.803Z,95.10
2019-05-26T02:08:00.657Z,95.20
2019-05-26T02:10:29.471Z,95.30
2019-05-26T02:12:57.902Z,95.30
2019-05-26T02:15:26.597Z,95.40
2019-05-26T02:17:55.228Z,95.30
2019-05-26T02:20:23.723Z,95.30
2019-05-26T02:22:52.222Z,95.40
2019-05-26T02:25:21.557Z,95.70
2019-05-26T02:27:49.991Z,95.80
2019-05-26T02:30:19.183Z,95.90
2019-05-26T02:32:47.672Z,95.80
2019-05-26T02:35:17.709Z,95.50
2019-05-26T02:37:46.401Z,95.50
2019-05-26T02:40:16.417Z,95.60
2019-05-26T02:42:44.908Z,95.70
2019-05-26T02:45:15.245Z,95.90
2019-05-26T02:47:44.512Z,96.20
2019-05-26T02:50:14.890Z,96.40
2019-05-26T02:52:43.319Z,96.50
2019-05-26T02:55:12.486Z,97.20
2019-05-26T02:57:40.934Z,97.20
2019-05-26T03:00:11.147Z,97.20
2019-05-26T03:02:40.134Z,97.00
2019-05-26T03:05:14.003Z,96.90
2019-05-26T03:07:43.747Z,97.00
2019-05-26T03:10:14.347Z,97.00
2019-05-26T03:12:43.767Z,97.00
2019-05-26T03:15:13.992Z,97.00
2019-05-26T03:17:43.192Z,97.20
2019-05-26T03:20:13.771Z,97.40
2019-05-26T03:22:43.067Z,97.40
2019-05-26T03:25:12.841Z,97.50
2019-05-26T03:27:41.347Z,97.60
2019-05-26T03:30:11.611Z,97.40
2019-05-26T03:32:40.223Z,97.20
2019-05-26T03:35:09.217Z,97.00
2019-05-26T03:37:37.733Z,97.00
2019-05-26T03:40:10.290Z,97.00
2019-05-26T03:42:38.729Z,96.80
2019-05-26T03:45:08.155Z,96.70
2019-05-26T03:47:36.639Z,96.60
2019-05-26T03:50:09.969Z,96.40
2019-05-26T03:52:38.461Z,96.40
2019-05-26T03:55:07.413Z,96.40
2019-05-26T03:57:35.885Z,96.40
2019-05-26T04:00:09.902Z,96.30
2019-05-26T04:02:38.365Z,96.30
2019-05-26T04:05:08.047Z,96.30
2019-05-26T04:07:36.958Z,96.20
2019-05-26T04:10:08.944Z,96.20
2019-05-26T04:12:37.452Z,96.20
2019-05-26T04:15:07.298Z,96.30
2019-05-26T04:17:35.735Z,96.40
2019-05-26T04:20:05.911Z,96.50
2019-05-26T04:22:34.365Z,96.50
2019-05-26T04:25:03.542Z,96.40
2019-05-26T04:27:32.067Z,96.30
2019-05-26T04:30:00.519Z,96.30
2019-05-26T04:32:29.010Z,96.20
2019-05-26T04:34:57.451Z,96.10
2019-05-26T04:37:25.894Z,96.00
2019-05-26T04:39:54.323Z,96.10
2019-05-26T04:42:22.759Z,96.10
2019-05-26T04:44:51.516Z,96.00
2019-05-26T04:47:19.974Z,95.90
2019-05-26T04:49:48.408Z,95.70
2019-05-26T04:52:17.172Z,95.60
2019-05-26T04:54:45.622Z,95.50
2019-05-26T04:57:14.094Z,95.70
2019-05-26T04:59:42.723Z,95.80
2019-05-26T05:02:11.481Z,95.70
2019-05-26T05:04:39.977Z,95.60
2019-05-26T05:07:08.404Z,95.40
2019-05-26T05:09:43.028Z,95.30
2019-05-26T05:12:11.474Z,95.30
2019-05-26T05:14:39.889Z,95.10
2019-05-26T05:17:08.330Z,95.00
2019-05-26T05:19:36.815Z,94.70
2019-05-26T05:22:05.739Z,94.70
2019-05-26T05:24:34.250Z,94.60
2019-05-26T05:27:02.687Z,94.60
2019-05-26T05:29:31.409Z,94.50
2019-05-26T05:31:59.838Z,94.50
2019-05-26T05:34:28.275Z,94.50
2019-05-26T05:36:56.737Z,94.00
2019-05-26T05:39:25.159Z,93.70
2019-05-26T05:41:53.626Z,93.80
2019-05-26T05:44:22.060Z,93.70
2019-05-26T05:46:50.494Z,93.50
2019-05-26T05:49:18.942Z,93.40
2019-05-26T05:51:47.447Z,93.40
2019-05-26T05:54:15.913Z,92.90
2019-05-26T05:56:44.351Z,92.60
2019-05-26T05:59:13.171Z,92.10
2019-05-26T06:01:41.607Z,91.80
2019-05-26T06:04:10.050Z,91.80
2019-05-26T06:06:38.494Z,90.90
2019-05-26T06:09:07.514Z,90.80
2019-05-26T06:11:36.803Z,90.90
2019-05-26T06:14:05.228Z,90.90
2019-05-26T06:16:33.674Z,90.30
2019-05-26T06:19:02.101Z,90.00
2019-05-26T06:21:30.540Z,90.00
2019-05-26T06:23:58.953Z,90.10
2019-05-26T06:26:27.450Z,90.10
2019-05-26T06:28:56.100Z,90.10
2019-05-26T06:31:25.010Z,90.10
2019-05-26T06:33:53.441Z,90.30
2019-05-26T06:36:21.872Z,88.00
2019-05-26T06:38:50.317Z,87.60
2019-05-26T06:41:32.204Z,88.00
2019-05-26T06:43:48.983Z,88.10
2019-05-26T06:46:17.437Z,87.90
2019-05-26T06:48:45.868Z,87.20
2019-05-26T06:54:54.940Z,84.60
2019-05-26T06:57:23.370Z,84.00
2019-05-26T06:59:51.872Z,84.20
2019-05-26T07:02:20.267Z,84.00
2019-05-26T07:04:48.682Z,82.90
2019-05-26T07:07:17.094Z,82.70
2019-05-26T07:09:45.511Z,82.50
2019-05-26T07:12:13.917Z,81.10
2019-05-26T07:14:42.334Z,80.80
2019-05-26T07:17:10.735Z,81.30
2019-05-26T07:19:39.157Z,80.70
2019-05-26T07:22:07.566Z,81.60
2019-05-26T07:24:41.698Z,81.00
2019-05-26T07:27:10.112Z,80.70
2019-05-26T07:29:38.925Z,78.70
2019-05-26T07:32:07.339Z,77.60
2019-05-26T07:34:35.762Z,78.30
2019-05-26T07:37:04.208Z,76.70
2019-05-26T07:39:32.705Z,79.10
2019-05-26T07:42:10.108Z,76.20
2019-05-26T07:44:31.255Z,77.90
2019-05-26T07:47:00.053Z,75.60
2019-05-26T07:49:28.518Z,77.30
2019-05-26T07:51:56.933Z,74.80
2019-05-26T07:54:26.124Z,74.10
2019-05-26T07:56:54.722Z,75.30
2019-05-26T07:59:23.142Z,75.10
2019-05-26T08:01:51.556Z,74.80
2019-05-26T08:04:22.979Z,75.20
2019-05-26T08:06:51.747Z,72.90
2019-05-26T08:09:20.174Z,74.50
2019-05-26T08:11:48.578Z,73.00
2019-05-26T08:14:17.003Z,73.90
2019-05-26T08:16:45.410Z,72.60
2019-05-26T08:19:13.835Z,72.10
2019-05-26T08:21:42.234Z,73.40
2019-05-26T08:24:10.657Z,73.20
2019-05-26T08:26:39.065Z,71.40
2019-05-26T08:29:07.485Z,70.70
2019-05-26T08:31:35.971Z,72.30
2019-05-26T08:34:04.450Z,70.90
2019-05-26T08:36:33.135Z,70.10
2019-05-26T08:39:01.535Z,68.30
2019-05-26T08:41:29.950Z,70.00
2019-05-26T08:43:58.404Z,69.10
2019-05-26T08:46:26.839Z,68.10
2019-05-26T08:48:55.590Z,70.20
2019-05-26T08:51:24.010Z,70.00
2019-05-26T08:53:52.419Z,69.30
2019-05-26T08:56:20.861Z,69.40
2019-05-26T08:58:49.262Z,66.80
2019-05-26T09:01:17.690Z,68.40
2019-05-26T09:03:46.100Z,68.20
2019-05-26T09:06:14.538Z,69.90
2019-05-26T09:08:42.942Z,70.60
2019-05-26T09:11:11.366Z,69.10
2019-05-26T09:13:39.797Z,67.40
2019-05-26T09:16:08.276Z,67.60
2019-05-26T09:18:36.761Z,68.00
2019-05-26T09:21:05.176Z,68.60
2019-05-26T09:23:33.574Z,69.30
2019-05-26T09:26:01.998Z,68.70
2019-05-26T09:28:30.407Z,67.90
2019-05-26T09:30:58.831Z,67.20
2019-05-26T09:33:27.258Z,69.30
2019-05-26T09:35:55.994Z,67.60
2019-05-26T09:38:24.407Z,68.50
2019-05-26T09:40:53.071Z,68.10
2019-05-26T09:43:21.493Z,67.90
2019-05-26T09:45:49.957Z,67.30
2019-05-26T09:48:18.377Z,66.90
2019-05-26T09:50:46.802Z,66.70
2019-05-26T09:53:15.556Z,66.90
2019-05-26T09:55:43.981Z,68.00
2019-05-26T09:58:12.472Z,67.90
2019-05-26T10:00:40.894Z,67.80
2019-05-26T10:03:09.309Z,67.40
2019-05-26T10:05:37.718Z,66.60
2019-05-26T10:08:06.141Z,65.90
2019-05-26T10:10:34.542Z,63.00
2019-05-26T10:13:02.988Z,68.50
2019-05-26T10:15:31.441Z,65.00
2019-05-26T10:17:59.862Z,61.60
2019-05-26T10:20:28.271Z,61.10
2019-05-26T10:22:56.696Z,61.40
2019-05-26T10:25:25.095Z,60.00
2019-05-26T10:27:53.865Z,61.40
2019-05-26T10:30:22.273Z,64.80
2019-05-26T10:32:50.691Z,63.20
2019-05-26T10:35:19.136Z,63.90
2019-05-26T10:37:47.601Z,61.10
2019-05-26T10:40:17.901Z,61.50
2019-05-26T10:42:46.309Z,60.70
2019-05-26T10:45:15.057Z,61.00
2019-05-26T10:47:43.481Z,60.80
2019-05-26T10:50:12.252Z,60.90
2019-05-26T10:52:40.677Z,61.90
2019-05-26T10:55:09.822Z,60.30
2019-05-26T10:57:38.254Z,58.80
2019-05-26T11:00:08.714Z,61.70
2019-05-26T11:02:37.141Z,65.10
2019-05-26T11:05:08.986Z,63.10
2019-05-26T11:07:37.404Z,62.30
2019-05-26T11:10:09.274Z,62.80
2019-05-26T11:12:37.991Z,61.10
2019-05-26T11:15:08.220Z,61.50
2019-05-26T11:17:36.645Z,63.10
2019-05-26T11:20:07.451Z,63.60
2019-05-26T11:22:35.897Z,62.10
2019-05-26T11:25:08.466Z,66.20
2019-05-26T11:27:36.901Z,64.40
2019-05-26T11:30:10.167Z,62.40
2019-05-26T11:32:38.743Z,64.50
2019-05-26T11:35:07.500Z,64.00
2019-05-26T11:37:38.950Z,62.20
2019-05-26T11:40:09.474Z,64.40
2019-05-26T11:42:38.111Z,64.40
2019-05-26T11:45:10.851Z,61.30
2019-05-26T11:47:45.109Z,61.70
2019-05-26T11:50:14.249Z,63.50
2019-05-26T11:52:42.733Z,60.50
2019-05-26T11:55:11.347Z,60.30
2019-05-26T11:57:39.786Z,61.50
2019-05-26T12:00:10.496Z,65.70
2019-05-26T12:02:39.926Z,64.10
2019-05-26T12:05:08.719Z,63.50
2019-05-26T12:07:37.187Z,59.60
2019-05-26T12:10:07.436Z,62.50
2019-05-26T12:12:36.164Z,59.70
2019-05-26T12:15:14.978Z,59.90
2019-05-26T12:17:43.434Z,58.80
2019-05-26T12:20:12.633Z,58.80
2019-05-26T12:22:41.071Z,58.10
2019-05-26T12:25:09.854Z,59.60
2019-05-26T12:27:38.321Z,58.60
2019-05-26T12:30:09.196Z,60.90
2019-05-26T12:32:37.712Z,60.20
2019-05-26T12:35:09.250Z,59.70
2019-05-26T12:37:37.697Z,60.60
2019-05-26T12:40:10.746Z,60.30
2019-05-26T12:42:40.059Z,60.60
2019-05-26T12:45:12.875Z,58.80
2019-05-26T12:47:41.650Z,56.20
2019-05-26T12:50:10.547Z,59.70
2019-05-26T12:52:39.058Z,58.90
2019-05-26T12:55:09.190Z,59.20
2019-05-26T12:57:38.339Z,60.20
2019-05-26T13:00:08.813Z,59.70
2019-05-26T13:02:37.309Z,60.70
2019-05-26T13:05:07.698Z,60.80
2019-05-26T13:07:36.716Z,63.80
2019-05-26T13:10:08.608Z,61.90
2019-05-26T13:12:37.411Z,62.40
2019-05-26T13:15:10.775Z,62.10
2019-05-26T13:17:39.281Z,58.20
2019-05-26T13:20:09.495Z,59.80
2019-05-26T13:22:40.973Z,57.70
2019-05-26T13:25:11.022Z,58.90
2019-05-26T13:27:39.534Z,60.50
2019-05-26T13:30:11.239Z,59.60
2019-05-26T13:32:39.661Z,59.00
2019-05-26T13:35:09.252Z,57.60
2019-05-26T13:37:37.706Z,56.80
2019-05-26T13:40:07.597Z,56.40
2019-05-26T13:42:36.611Z,56.20
2019-05-26T13:45:21.703Z,56.10
2019-05-26T13:47:39.706Z,53.90
2019-05-26T13:50:09.319Z,55.20
2019-05-26T13:52:37.855Z,56.70
2019-05-26T13:55:11.133Z,54.90
2019-05-26T13:57:39.634Z,56.40
2019-05-26T14:00:09.828Z,52.80
2019-05-26T14:02:38.748Z,52.90
2019-05-26T14:05:08.835Z,54.80
2019-05-26T14:07:37.276Z,54.90
2019-05-26T14:10:31.340Z,55.00
2019-05-26T14:12:59.777Z,53.30
2019-05-26T14:15:37.505Z,52.70
2019-05-26T14:17:59.018Z,52.10
2019-05-26T14:20:35.865Z,52.40
2019-05-26T14:23:05.960Z,52.40
2019-05-26T14:25:34.629Z,52.10
2019-05-26T14:28:03.196Z,51.40
2019-05-26T14:30:31.724Z,51.20
2019-05-26T14:33:00.538Z,50.10
2019-05-26T14:35:28.991Z,48.80
2019-05-26T14:37:57.418Z,50.20
2019-05-26T14:40:25.966Z,48.40
2019-05-26T14:42:54.417Z,49.40
2019-05-26T14:45:22.863Z,49.50
2019-05-26T14:47:51.302Z,49.50
2019-05-26T14:50:20.314Z,49.70
2019-05-26T14:52:48.757Z,48.60
2019-05-26T14:55:17.736Z,49.20
2019-05-26T14:57:46.175Z,48.80
2019-05-26T15:00:15.251Z,49.10
2019-05-26T15:02:43.783Z,51.00
2019-05-26T15:05:13.249Z,48.80
2019-05-26T15:07:41.702Z,49.20
2019-05-26T15:10:10.215Z,49.60
2019-05-26T15:12:38.670Z,47.10
2019-05-26T15:15:09.307Z,48.90
2019-05-26T15:17:37.742Z,48.00
2019-05-26T15:20:07.614Z,47.20
2019-05-26T15:22:36.698Z,48.30
2019-05-26T15:25:08.142Z,48.50
2019-05-26T15:27:36.673Z,49.50
2019-05-26T15:30:09.910Z,46.00
2019-05-26T15:32:38.341Z,45.80
2019-05-26T15:35:10.223Z,44.10
2019-05-26T15:37:38.664Z,45.90
2019-05-26T15:40:08.563Z,45.20
2019-05-26T15:42:37.167Z,45.40
2019-05-26T15:45:09.503Z,45.60
2019-05-26T15:47:38.091Z,45.50
2019-05-26T15:50:07.294Z,43.60
2019-05-26T15:52:35.750Z,44.20
2019-05-26T15:55:04.978Z,44.80
2019-05-26T15:57:33.452Z,46.20
2019-05-26T16:00:01.900Z,44.90
2019-05-26T16:02:30.346Z,45.30
2019-05-26T16:04:59.121Z,44.50
2019-05-26T16:07:27.874Z,44.50
2019-05-26T16:09:56.336Z,43.70
2019-05-26T16:12:24.766Z,44.90
2019-05-26T16:14:53.599Z,45.40
2019-05-26T16:17:22.042Z,45.50
2019-05-26T16:19:50.863Z,46.70
2019-05-26T16:22:19.657Z,46.20
2019-05-26T16:24:48.435Z,44.80
2019-05-26T16:27:19.532Z,46.00
2019-05-26T16:29:47.043Z,46.10
2019-05-26T16:32:18.795Z,46.50
2019-05-26T16:34:46.027Z,47.80
2019-05-26T16:37:14.482Z,48.40
2019-05-26T16:39:42.916Z,50.70
2019-05-26T16:42:11.365Z,51.30
2019-05-26T16:44:39.784Z,50.80
2019-05-26T16:47:08.242Z,49.40
2019-05-26T16:49:36.670Z,47.70
2019-05-26T16:52:06.069Z,46.60
2019-05-26T16:54:34.999Z,46.00
2019-05-26T16:57:03.650Z,46.20
2019-05-26T16:59:32.091Z,47.30
2019-05-26T17:02:00.864Z,50.00
2019-05-26T17:04:29.294Z,50.90
2019-05-26T17:06:57.744Z,50.40
2019-05-26T17:09:26.533Z,51.90
2019-05-26T17:11:55.035Z,52.20
2019-05-26T17:14:23.495Z,54.30
2019-05-26T17:16:51.956Z,56.10
2019-05-26T17:19:20.453Z,56.40
2019-05-26T17:21:48.911Z,55.40
2019-05-26T17:24:17.377Z,55.70
2019-05-26T17:26:45.844Z,56.00
2019-05-26T17:29:14.295Z,56.40
2019-05-26T17:31:42.738Z,57.50
2019-05-26T17:34:11.202Z,57.90
2019-05-26T17:36:39.689Z,57.50
2019-05-26T17:39:08.917Z,56.80
2019-05-26T17:41:37.970Z,57.50
2019-05-26T17:44:06.785Z,56.80
2019-05-26T17:46:35.293Z,56.40
2019-05-26T17:49:03.948Z,57.20
2019-05-26T17:51:33.206Z,56.70
2019-05-26T17:54:01.763Z,56.60
2019-05-26T17:56:30.226Z,56.10
2019-05-26T17:58:58.706Z,57.60
2019-05-26T18:01:27.143Z,56.70
2019-05-26T18:03:55.927Z,57.60
2019-05-26T18:06:24.399Z,59.10
2019-05-26T18:08:52.876Z,57.90
2019-05-26T18:11:21.378Z,57.80
2019-05-26T18:13:49.830Z,58.40
2019-05-26T18:16:18.439Z,58.20
2019-05-26T18:18:50.506Z,58.80
2019-05-26T18:21:18.960Z,58.90
2019-05-26T18:23:47.422Z,58.70
2019-05-26T18:26:15.874Z,58.50
2019-05-26T18:28:44.339Z,58.40
2019-05-26T18:31:12.768Z,59.30
2019-05-26T18:33:41.216Z,58.20
2019-05-26T18:36:09.723Z,59.10
2019-05-26T18:38:38.180Z,60.10
2019-05-26T18:41:06.603Z,60.10
2019-05-26T18:43:35.387Z,60.30
2019-05-26T18:46:03.874Z,61.30
2019-05-26T18:48:32.394Z,61.10
2019-05-26T18:51:00.862Z,60.80
2019-05-26T18:53:29.957Z,61.50
2019-05-26T18:55:58.679Z,60.90
2019-05-26T18:58:27.117Z,60.30
2019-05-26T19:00:57.115Z,61.10
2019-05-26T19:03:28.801Z,62.10
2019-05-26T19:05:58.101Z,62.30
2019-05-26T19:08:26.557Z,61.90
2019-05-26T19:10:55.430Z,61.90
2019-05-26T19:13:25.419Z,62.60
2019-05-26T19:15:53.930Z,63.00
2019-05-26T19:18:22.411Z,63.20
2019-05-26T19:20:51.017Z,63.80
2019-05-26T19:23:19.548Z,64.10
2019-05-26T19:25:48.055Z,64.30
2019-05-26T19:28:16.570Z,64.50
2019-05-26T19:30:45.797Z,65.00
2019-05-26T19:33:14.436Z,65.30
2019-05-26T19:35:42.889Z,65.50
2019-05-26T19:38:11.317Z,65.40
2019-05-26T19:40:40.150Z,65.50
2019-05-26T19:43:08.680Z,65.50
2019-05-26T19:45:37.196Z,65.50
2019-05-26T19:48:05.631Z,65.10
2019-05-26T19:50:34.079Z,65.10
2019-05-26T19:53:02.539Z,65.20
2019-05-26T19:55:31.007Z,65.90
2019-05-26T19:57:59.443Z,65.60
2019-05-26T20:00:29.979Z,66.20
2019-05-26T20:02:58.446Z,66.60
2019-05-26T20:05:26.903Z,67.30
2019-05-26T20:07:55.352Z,66.90
2019-05-26T20:10:23.950Z,67.40
2019-05-26T20:12:52.375Z,67.70
2019-05-26T20:15:21.131Z,67.80
2019-05-26T20:17:49.659Z,68.10
2019-05-26T20:20:19.525Z,68.20
2019-05-26T20:22:47.999Z,68.60
2019-05-26T20:25:17.019Z,69.20
2019-05-26T20:27:47.540Z,69.30
2019-05-26T20:30:20.994Z,70.30
2019-05-26T20:32:47.407Z,71.30
2019-05-26T20:35:16.955Z,72.40
2019-05-26T20:37:45.430Z,73.20
2019-05-26T20:40:15.168Z,73.60
2019-05-26T20:42:43.614Z,73.80
2019-05-26T20:45:12.442Z,74.30
2019-05-26T20:47:40.893Z,74.60
2019-05-26T20:50:27.609Z,74.80
2019-05-26T20:52:41.045Z,75.20
2019-05-26T20:55:10.522Z,75.30
2019-05-26T20:57:38.974Z,75.60
2019-05-26T21:00:10.105Z,75.60
2019-05-26T21:02:39.390Z,75.60
2019-05-26T21:05:08.703Z,75.50
2019-05-26T21:07:37.134Z,75.70
2019-05-26T21:10:06.937Z,76.20
2019-05-26T21:12:35.717Z,76.70
2019-05-26T21:15:05.741Z,77.60
2019-05-26T21:17:34.159Z,78.00
2019-05-26T21:20:02.675Z,78.60
2019-05-26T21:22:31.464Z,79.70
2019-05-26T21:24:59.920Z,80.20
2019-05-26T21:27:28.347Z,80.70
2019-05-26T21:29:56.898Z,80.90
2019-05-26T21:32:25.347Z,81.50
2019-05-26T21:34:53.791Z,82.10
2019-05-26T21:37:22.240Z,82.70
2019-05-26T21:39:50.693Z,82.90
2019-05-26T21:42:19.511Z,83.40
2019-05-26T21:44:47.957Z,84.10
2019-05-26T21:47:16.446Z,84.30
2019-05-26T21:49:45.258Z,83.90
2019-05-26T21:52:13.723Z,84.20
2019-05-26T21:54:42.142Z,84.00
2019-05-26T21:57:10.597Z,84.10
2019-05-26T21:59:39.378Z,84.20
2019-05-26T22:02:07.917Z,84.20
2019-05-26T22:04:36.389Z,84.20
2019-05-26T22:07:05.376Z,84.30
2019-05-26T22:09:33.863Z,84.40
2019-05-26T22:12:02.312Z,84.60
2019-05-26T22:14:30.737Z,84.80
2019-05-26T22:16:59.219Z,84.80
2019-05-26T22:19:27.943Z,85.00
2019-05-26T22:21:56.399Z,85.00
2019-05-26T22:24:25.200Z,85.00
2019-05-26T22:26:53.626Z,85.10
2019-05-26T22:29:22.068Z,85.10
2019-05-26T22:31:50.498Z,85.00
2019-05-26T22:34:18.938Z,85.00
2019-05-26T22:36:47.386Z,85.20
2019-05-26T22:39:15.849Z,85.20
2019-05-26T22:41:44.300Z,85.10
2019-05-26T22:44:12.735Z,85.30
2019-05-26T22:46:41.527Z,85.60
2019-05-26T22:49:09.950Z,85.80
2019-05-26T22:51:38.424Z,86.00
2019-05-26T22:54:06.865Z,86.00
2019-05-26T22:56:35.340Z,86.20
2019-05-26T22:59:03.858Z,86.20
2019-05-26T23:01:32.323Z,86.50
2019-05-26T23:04:03.239Z,86.70
2019-05-26T23:06:31.254Z,86.90
2019-05-26T23:08:59.708Z,86.90
2019-05-26T23:11:28.156Z,86.90
2019-05-26T23:13:56.595Z,87.00
2019-05-26T23:16:25.024Z,87.00
2019-05-26T23:18:53.631Z,87.00
2019-05-26T23:21:22.398Z,87.10
2019-05-26T23:23:50.834Z,87.10
2019-05-26T23:26:19.274Z,87.20
2019-05-26T23:28:47.722Z,87.60
2019-05-26T23:31:16.234Z,87.30
2019-05-26T23:33:44.716Z,87.10
2019-05-26T23:36:13.154Z,86.90
2019-05-26T23:38:41.615Z,86.80
2019-05-26T23:41:10.064Z,86.80
2019-05-26T23:43:38.540Z,86.90
2019-05-26T23:46:06.979Z,87.00
2019-05-26T23:48:35.442Z,87.20
2019-05-26T23:51:03.888Z,87.40
2019-05-26T23:53:32.342Z,87.60
2019-05-26T23:56:00.818Z,87.70
2019-05-26T23:58:29.261Z,87.70
